createdAt,value
2017-07-25T00:07:45.000Z,1002.587
2017-07-25T00:17:45.000Z,1002.532
2017-07-25T00:27:45.000Z,1002.497
2017-07-25T00:37:45.000Z,1002.36
2017-07-25T00:47:45.000Z,1002.268
2017-07-25T00:57:45.000Z,1002.222
2017-07-25T01:07:45.000Z,1002.151
2017-07-25T01:17:45.000Z,1002.159
2017-07-25T01:27:45.000Z,1002.077
2017-07-25T01:37:45.000Z,1001.976
2017-07-25T01:47:45.000Z,1002.015
2017-07-25T01:57:45.000Z,1001.888
2017-07-25T02:07:45.000Z,1001.782
2017-07-25T02:17:45.000Z,1001.701
2017-07-25T02:27:45.000Z,1001.659
2017-07-25T02:37:45.000Z,1001.702
2017-07-25T02:47:45.000Z,1001.69
2017-07-25T02:57:45.000Z,1001.631
2017-07-25T03:07:45.000Z,1001.673
2017-07-25T03:17:45.000Z,1001.627
2017-07-25T03:27:45.000Z,1001.561
2017-07-25T03:37:45.000Z,1001.529
2017-07-25T03:47:45.000Z,1001.482
2017-07-25T03:57:45.000Z,1001.451
2017-07-25T04:07:45.000Z,1001.417
2017-07-25T04:17:45.000Z,1001.44
2017-07-25T04:27:46.000Z,1001.235
2017-07-25T04:37:46.000Z,1001.181
2017-07-25T04:47:46.000Z,1001.079
2017-07-25T04:57:46.000Z,1000.979
2017-07-25T05:07:46.000Z,1001.112
2017-07-25T05:17:46.000Z,1001.26
2017-07-25T05:27:46.000Z,1001.165
2017-07-25T05:37:47.000Z,1001.091
2017-07-25T05:47:46.000Z,1001.149
2017-07-25T05:57:47.000Z,1001.133
2017-07-25T06:07:46.000Z,1001.139
2017-07-25T06:17:46.000Z,1001.092
2017-07-25T06:27:46.000Z,1001.141
2017-07-25T06:37:46.000Z,1001.109
2017-07-25T06:47:46.000Z,1001.163
2017-07-25T06:57:46.000Z,1001.267
2017-07-25T07:07:46.000Z,1001.311
2017-07-25T07:17:46.000Z,1001.393
2017-07-25T07:27:46.000Z,1001.291
2017-07-25T07:37:46.000Z,1001.203
2017-07-25T07:47:46.000Z,1001.284
2017-07-25T07:57:46.000Z,1001.261
2017-07-25T08:07:46.000Z,1001.223
2017-07-25T08:17:46.000Z,1001.212
2017-07-25T08:27:46.000Z,1001.129
2017-07-25T08:37:46.000Z,1001.044
2017-07-25T08:47:46.000Z,1001.01
2017-07-25T08:57:46.000Z,1000.963
2017-07-25T09:07:46.000Z,1000.875
2017-07-25T09:17:46.000Z,1000.812
2017-07-25T09:27:46.000Z,1000.708
2017-07-25T09:37:46.000Z,1000.631
2017-07-25T09:57:46.000Z,1000.422
2017-07-25T10:07:47.000Z,1000.423
2017-07-25T10:17:48.000Z,1000.293
2017-07-25T10:27:46.000Z,1000.217
2017-07-25T10:37:46.000Z,1000.109
2017-07-25T10:47:46.000Z,999.967
2017-07-25T10:57:46.000Z,999.929
2017-07-25T11:07:46.000Z,999.884
2017-07-25T11:17:46.000Z,999.834
2017-07-25T11:27:46.000Z,999.73
2017-07-25T11:37:46.000Z,999.71
2017-07-25T11:47:46.000Z,999.672
2017-07-25T11:57:47.000Z,999.624
2017-07-25T12:07:46.000Z,999.559
2017-07-25T12:17:46.000Z,999.576
2017-07-25T12:27:48.000Z,999.443
2017-07-25T12:37:46.000Z,999.442
2017-07-25T12:47:47.000Z,999.36
2017-07-25T12:57:47.000Z,999.195
2017-07-25T13:07:47.000Z,999.117
2017-07-25T13:17:47.000Z,999.05
2017-07-25T13:27:47.000Z,998.909
2017-07-25T13:37:47.000Z,998.862
2017-07-25T13:47:47.000Z,998.847
2017-07-25T13:57:47.000Z,998.854
2017-07-25T14:07:47.000Z,998.836
2017-07-25T14:17:47.000Z,998.767
2017-07-25T14:27:47.000Z,998.615
2017-07-25T14:37:47.000Z,998.569
2017-07-25T14:47:47.000Z,998.518
2017-07-25T14:57:47.000Z,998.466
2017-07-25T15:07:47.000Z,998.549
2017-07-25T15:17:47.000Z,998.537
2017-07-25T15:27:47.000Z,998.51
2017-07-25T15:37:48.000Z,998.575
2017-07-25T15:47:47.000Z,998.692
2017-07-25T15:57:47.000Z,998.695
2017-07-25T16:07:47.000Z,998.731
2017-07-25T16:17:47.000Z,998.772
2017-07-25T16:27:47.000Z,998.789
2017-07-25T16:37:47.000Z,998.753
2017-07-25T16:47:47.000Z,998.789
2017-07-25T16:57:47.000Z,998.769
2017-07-25T17:07:47.000Z,998.715
2017-07-25T17:17:47.000Z,998.737
2017-07-25T17:27:47.000Z,998.825
2017-07-25T17:37:47.000Z,998.856
2017-07-25T17:47:47.000Z,998.95
2017-07-25T17:57:47.000Z,998.965
2017-07-25T18:07:47.000Z,999.039
2017-07-25T18:17:47.000Z,999.108
2017-07-25T18:27:47.000Z,999.138
2017-07-25T18:37:47.000Z,999.276
2017-07-25T18:47:47.000Z,999.491
2017-07-25T18:57:47.000Z,999.616
2017-07-25T19:07:48.000Z,999.685
2017-07-25T19:17:47.000Z,999.929
2017-07-25T19:27:47.000Z,999.937
2017-07-25T19:37:47.000Z,1000.106
2017-07-25T19:47:47.000Z,1000.128
2017-07-25T19:57:47.000Z,1000.155
2017-07-25T20:07:48.000Z,1000.244
2017-07-25T20:17:47.000Z,1000.322
2017-07-25T20:37:47.000Z,1000.386
2017-07-25T20:47:47.000Z,1000.457
2017-07-25T20:57:47.000Z,1000.48
2017-07-25T21:07:48.000Z,1000.551
2017-07-25T21:17:48.000Z,1000.526
2017-07-25T21:27:48.000Z,1000.583
2017-07-25T21:37:48.000Z,1000.626
2017-07-25T21:47:48.000Z,1000.599
2017-07-25T21:57:48.000Z,1000.668
2017-07-25T22:07:48.000Z,1000.722
2017-07-25T22:17:48.000Z,1000.664
2017-07-25T22:27:48.000Z,1000.627
2017-07-25T22:57:48.000Z,1000.655
2017-07-25T23:07:48.000Z,1000.59
2017-07-25T23:17:48.000Z,1000.523
2017-07-25T23:27:48.000Z,1000.603
2017-07-25T23:37:48.000Z,1000.575
2017-07-25T23:47:48.000Z,1000.657
